Time;durP1;ratioP1;P1;durP2;ratioP2;P2;SDS_P1;SDS_P2;PMS_P1;PMS_P2;Temp;Humidity;BMP_temperature;BMP_pressure;BME280_temperature;BME280_humidity;BME280_pressure;Samples;Min_cycle;Max_cycle;Signal;HPM_P1;HPM_P2
2023/04/04 00:02:09;;;;;;;4.87;4.53;;;0.90;99.90;;;1.52;69.38;98756.81;5235070;28;20194;-65
2023/04/04 00:04:42;;;;;;;4.70;4.30;;;0.90;99.90;;;1.53;69.30;98762.00;5235865;28;20223;-65
2023/04/04 00:07:16;;;;;;;5.40;4.97;;;0.90;99.90;;;1.58;69.78;98757.44;5240578;28;20719;-65
2023/04/04 00:09:49;;;;;;;4.97;4.67;;;0.80;99.90;;;1.50;70.19;98755.75;5237601;28;20199;-65
2023/04/04 00:12:23;;;;;;;5.73;5.17;;;0.80;99.90;;;1.41;70.64;98752.25;5238126;28;20235;-66
2023/04/04 00:15:00;;;;;;;5.10;4.63;;;0.70;99.90;;;1.35;71.58;98745.81;5246774;28;20230;-65
2023/04/04 00:17:33;;;;;;;6.07;5.57;;;0.70;99.90;;;1.26;71.98;98748.97;5238081;28;20193;-65
2023/04/04 00:20:08;;;;;;;6.23;5.77;;;0.60;99.90;;;1.27;71.97;98739.06;5238782;28;20207;-65
2023/04/04 00:22:42;;;;;;;5.63;5.33;;;0.60;99.90;;;1.11;73.02;98736.53;5237145;28;20575;-65
2023/04/04 00:25:15;;;;;;;5.30;4.90;;;0.50;99.90;;;1.05;72.89;98734.97;5235957;28;20224;-65
2023/04/04 00:27:48;;;;;;;5.87;5.37;;;0.40;99.90;;;1.01;72.31;98733.75;5236784;28;20212;-65
2023/04/04 00:30:21;;;;;;;5.20;4.70;;;0.30;99.90;;;0.96;71.48;98734.00;5228532;28;20220;-65
2023/04/04 00:32:55;;;;;;;5.50;4.77;;;0.20;99.90;;;0.89;71.81;98730.81;5231105;28;20201;-64
2023/04/04 00:35:28;;;;;;;5.30;4.93;;;0.20;99.90;;;0.88;74.00;98738.19;5232991;28;20220;-65
2023/04/04 00:38:02;;;;;;;5.03;4.73;;;0.20;99.90;;;0.85;74.46;98727.81;5236576;28;20610;-65
2023/04/04 00:40:42;;;;;;;5.00;4.57;;;0.20;99.90;;;0.81;75.10;98734.13;5230647;28;20200;-65
2023/04/04 00:43:16;;;;;;;4.67;4.37;;;0.10;99.90;;;0.79;74.88;98732.16;5242137;28;20196;-65
2023/04/04 00:45:50;;;;;;;4.67;4.30;;;0.20;99.90;;;0.77;76.03;98729.47;5231715;28;20231;-65
2023/04/04 00:48:23;;;;;;;5.50;5.00;;;0.20;99.90;;;0.78;75.39;98726.25;5230786;28;20611;-65
2023/04/04 00:50:56;;;;;;;5.23;4.50;;;0.10;99.90;;;0.66;75.15;98717.38;5235032;28;20228;-65
2023/04/04 00:53:31;;;;;;;5.07;4.60;;;0.00;99.90;;;0.67;76.06;98721.69;5232266;28;20670;-65
2023/04/04 00:56:04;;;;;;;5.10;4.80;;;0.00;99.90;;;0.55;76.09;98713.69;5241763;28;20224;-65
2023/04/04 00:58:37;;;;;;;6.00;5.40;;;-0.10;99.90;;;0.54;75.66;98718.53;5236536;28;20201;-65
2023/04/04 01:01:10;;;;;;;5.00;4.50;;;-0.10;99.90;;;0.54;76.56;98713.50;5239126;28;20208;-65
2023/04/04 01:03:44;;;;;;;5.50;5.00;;;-0.10;99.90;;;0.56;76.56;98709.56;5240793;28;20226;-64
2023/04/04 01:06:17;;;;;;;5.23;4.83;;;-0.10;99.90;;;0.54;77.22;98709.38;5235306;28;20495;-65
2023/04/04 01:08:53;;;;;;;5.00;4.70;;;-0.10;99.90;;;0.58;77.67;98718.16;5235146;28;20259;-65
2023/04/04 01:11:27;;;;;;;5.57;5.07;;;-0.20;99.90;;;0.52;78.18;98702.41;5233873;28;20223;-66
2023/04/04 01:14:00;;;;;;;5.33;4.93;;;-0.20;99.90;;;0.55;78.22;98700.22;5229568;28;20735;-65
2023/04/04 01:16:34;;;;;;;6.13;5.53;;;-0.20;99.90;;;0.54;78.78;98695.91;5236168;28;20210;-65
2023/04/04 01:19:17;;;;;;;5.90;5.50;;;-0.20;99.90;;;0.52;79.94;98692.34;5234549;28;20302;-65
2023/04/04 01:21:52;;;;;;;5.60;5.10;;;-0.20;99.90;;;0.46;80.09;98695.09;5231499;28;20203;-66
2023/04/04 01:24:33;;;;;;;5.20;4.80;;;-0.30;99.90;;;0.38;79.46;98694.25;5231213;28;20225;-64
2023/04/04 01:27:08;;;;;;;5.03;4.73;;;-0.30;99.90;;;0.27;79.09;98696.31;5243147;28;20287;-65
2023/04/04 01:29:41;;;;;;;6.20;5.60;;;-0.40;99.90;;;0.28;80.27;98691.44;5235471;28;20309;-64
2023/04/04 01:32:21;;;;;;;5.30;4.90;;;-0.40;99.90;;;0.26;80.47;98687.88;5233689;28;20239;-64
2023/04/04 01:35:01;;;;;;;5.27;4.83;;;-0.40;99.90;;;0.14;80.29;98686.50;5235293;28;20228;-65
2023/04/04 01:37:38;;;;;;;5.90;5.40;;;-0.50;99.90;;;0.11;80.33;98678.63;5232997;28;20698;-64
2023/04/04 01:40:18;;;;;;;5.30;4.83;;;-0.50;99.90;;;0.10;80.80;98686.91;5242658;28;20287;-65
2023/04/04 01:42:52;;;;;;;5.53;5.13;;;-0.60;99.90;;;-0.06;79.57;98690.25;5244740;28;20198;-64
2023/04/04 01:45:26;;;;;;;5.60;5.17;;;-0.70;99.90;;;0.02;79.42;98688.56;5242977;28;20553;-65
2023/04/04 01:47:59;;;;;;;5.47;5.17;;;-0.70;99.90;;;0.00;81.25;98692.56;5233871;28;20216;-65
2023/04/04 01:50:32;;;;;;;5.90;5.40;;;-0.70;99.90;;;0.05;80.82;98693.94;5233809;28;20204;-65
2023/04/04 01:53:05;;;;;;;5.93;5.43;;;-0.60;99.90;;;0.13;81.21;98689.75;5230424;28;20580;-65
2023/04/04 01:55:38;;;;;;;5.80;5.30;;;-0.60;99.90;;;0.08;82.78;98695.91;5237020;28;20228;-65
2023/04/04 01:58:12;;;;;;;6.13;5.60;;;-0.60;99.90;;;0.05;82.84;98685.50;5231804;28;20204;-65
2023/04/04 02:00:45;;;;;;;5.57;5.00;;;-0.60;99.90;;;-0.08;82.83;98684.16;5241284;28;20226;-65
2023/04/04 02:03:18;;;;;;;5.30;4.90;;;-0.70;99.90;;;-0.11;81.78;98691.34;5237545;28;20326;-65
2023/04/04 02:05:51;;;;;;;5.40;4.90;;;-0.80;99.90;;;-0.10;82.00;98684.72;5232056;28;20691;-65
2023/04/04 02:08:24;;;;;;;5.63;5.13;;;-0.80;99.90;;;-0.07;83.03;98690.06;5233888;28;20680;-64
2023/04/04 02:10:58;;;;;;;6.07;5.57;;;-0.70;99.90;;;-0.09;84.16;98696.53;5234511;28;20245;-66
2023/04/04 02:13:32;;;;;;;5.97;5.47;;;-0.80;99.90;;;-0.13;83.88;98699.44;5236847;28;20203;-66
2023/04/04 02:16:05;;;;;;;5.93;5.50;;;-0.80;99.90;;;-0.17;83.93;98698.22;5240808;28;20228;-65
2023/04/04 02:18:39;;;;;;;5.87;5.33;;;-0.80;99.90;;;-0.28;83.36;98699.53;5235745;28;20211;-64
2023/04/04 02:21:12;;;;;;;5.67;5.17;;;-0.90;99.90;;;-0.28;84.83;98701.16;5239376;28;20242;-65
2023/04/04 02:23:45;;;;;;;5.30;4.90;;;-0.90;99.90;;;-0.26;83.58;98700.59;5244358;28;20209;-64
2023/04/04 02:26:18;;;;;;;5.73;5.27;;;-0.90;99.90;;;-0.22;83.92;98695.91;5240157;28;20227;-65
2023/04/04 02:28:52;;;;;;;4.93;4.53;;;-0.90;99.90;;;-0.25;83.95;98688.94;5236650;28;20202;-65
2023/04/04 02:31:25;;;;;;;5.50;4.97;;;-0.90;99.90;;;-0.26;84.42;98689.63;5237339;28;20252;-65
2023/04/04 02:33:58;;;;;;;5.93;5.43;;;-0.90;99.90;;;-0.31;84.74;98685.75;5236600;28;20671;-64
2023/04/04 02:36:31;;;;;;;5.57;5.00;;;-1.00;99.90;;;-0.42;83.94;98682.00;5245892;28;20197;-65
2023/04/04 02:39:04;;;;;;;5.73;5.23;;;-1.00;99.90;;;-0.39;83.76;98694.03;5244036;28;20626;-65
2023/04/04 02:41:37;;;;;;;5.17;4.87;;;-1.00;99.90;;;-0.38;83.65;98690.78;5234188;28;20284;-65
2023/04/04 02:44:11;;;;;;;6.80;5.27;;;-1.00;99.90;;;-0.49;84.34;98687.97;5238755;28;20626;-65
2023/04/04 02:46:44;;;;;;;5.37;4.97;;;-1.10;99.90;;;-0.53;83.36;98689.97;5238562;28;20211;-65
2023/04/04 02:49:17;;;;;;;5.67;5.27;;;-1.10;99.90;;;-0.57;83.32;98686.22;5239634;28;20209;-64
2023/04/04 02:51:51;;;;;;;5.63;5.23;;;-1.20;99.90;;;-0.59;82.55;98695.19;5241467;28;20283;-64
2023/04/04 02:54:24;;;;;;;6.07;5.57;;;-1.20;99.90;;;-0.74;81.64;98688.44;5236305;28;20222;-64
2023/04/04 02:56:57;;;;;;;5.83;5.33;;;-1.30;99.90;;;-0.65;81.82;98693.59;5231544;28;20574;-64
2023/04/04 02:59:31;;;;;;;5.80;5.40;;;-1.20;99.90;;;-0.68;81.19;98691.63;5234633;28;20198;-65
2023/04/04 03:02:04;;;;;;;6.63;6.03;;;-1.30;99.90;;;-0.72;81.87;98692.00;5242620;28;20410;-65
2023/04/04 03:04:37;;;;;;;6.70;6.10;;;-1.30;99.90;;;-0.75;80.74;98689.13;5242806;28;20703;-65
2023/04/04 03:07:10;;;;;;;6.03;5.53;;;-1.30;99.90;;;-0.75;80.93;98694.16;5238405;28;20210;-64
2023/04/04 03:09:44;;;;;;;6.43;5.37;;;-1.30;99.90;;;-0.67;81.88;98685.88;5235430;28;20205;-65
2023/04/04 03:12:20;;;;;;;5.83;5.43;;;-1.20;99.90;;;-0.71;81.45;98691.28;5232146;28;20323;-65
2023/04/04 03:14:55;;;;;;;5.67;5.33;;;-1.30;99.90;;;-0.73;81.96;98690.22;5236464;28;20335;-64
2023/04/04 03:17:28;;;;;;;5.90;5.40;;;-1.30;99.90;;;-0.70;82.50;98690.56;5230880;28;20669;-64
2023/04/04 03:20:01;;;;;;;6.73;6.13;;;-1.20;99.90;;;-0.78;81.85;98682.16;5242324;28;20228;-66
2023/04/04 03:22:34;;;;;;;6.17;5.67;;;-1.30;99.90;;;-0.80;80.11;98682.69;5242374;28;22325;-64
2023/04/04 03:25:08;;;;;;;6.83;6.20;;;-1.40;99.90;;;-0.59;81.71;98677.59;5231130;28;20228;-67
2023/04/04 03:27:41;;;;;;;6.17;5.77;;;-1.20;99.90;;;-0.59;83.20;98674.22;5241776;28;20667;-66
2023/04/04 03:30:15;;;;;;;5.63;5.27;;;-1.20;99.90;;;-0.61;81.56;98678.16;5232832;28;20214;-65
2023/04/04 03:32:49;;;;;;;5.63;5.23;;;-1.20;99.90;;;-0.73;81.22;98678.56;5237558;28;20308;-65
2023/04/04 03:35:22;;;;;;;6.07;5.47;;;-1.30;99.90;;;-0.77;81.60;98678.06;5238763;28;20234;-65
2023/04/04 03:37:55;;;;;;;6.20;5.80;;;-1.30;99.90;;;-0.71;82.20;98676.22;5232302;28;20328;-67
2023/04/04 03:40:28;;;;;;;6.47;6.00;;;-1.30;99.90;;;-0.70;82.31;98678.00;5241206;28;20200;-65
2023/04/04 03:43:02;;;;;;;7.70;7.10;;;-1.30;99.90;;;-0.65;83.27;98678.53;5235040;28;20196;-64
2023/04/04 03:45:37;;;;;;;9.70;8.90;;;-1.30;99.90;;;-0.62;83.27;98679.78;5239150;28;20231;-65
2023/04/04 03:48:10;;;;;;;16.07;12.60;;;-1.20;99.90;;;-0.59;83.72;98679.22;5241161;28;20202;-65
2023/04/04 03:50:43;;;;;;;11.63;10.47;;;-1.20;99.90;;;-0.66;84.29;98677.63;5241951;28;20201;-64
2023/04/04 03:53:16;;;;;;;9.57;7.70;;;-1.20;99.90;;;-0.85;81.05;98682.19;5235346;28;20213;-66
2023/04/04 03:55:49;;;;;;;6.70;6.10;;;-1.40;99.90;;;-0.94;82.76;98679.53;5235461;28;20233;-65
2023/04/04 03:58:24;;;;;;;7.37;6.70;;;-1.50;99.90;;;-0.91;82.12;98679.00;5239450;28;20197;-65
2023/04/04 04:00:58;;;;;;;7.57;6.97;;;-1.50;99.90;;;-0.87;81.33;98686.13;5233450;28;20209;-65
2023/04/04 04:03:31;;;;;;;7.73;7.13;;;-1.50;99.90;;;-0.84;82.00;98680.56;5241171;28;20197;-65
2023/04/04 04:06:05;;;;;;;12.83;11.63;;;-1.40;99.90;;;-0.75;83.11;98696.66;5232276;28;20339;-65
2023/04/04 04:08:38;;;;;;;6.87;6.27;;;-1.40;99.90;;;-0.88;81.39;98691.00;5239039;28;20205;-65
2023/04/04 04:11:11;;;;;;;6.43;5.83;;;-1.40;99.90;;;-0.97;79.40;98689.22;5240227;28;20208;-65
2023/04/04 04:13:44;;;;;;;6.30;5.80;;;-1.50;99.90;;;-1.01;79.04;98686.16;5232506;28;20229;-64
2023/04/04 04:16:18;;;;;;;6.90;6.30;;;-1.50;99.90;;;-0.76;78.69;98679.84;5238028;28;20700;-65
2023/04/04 04:18:51;;;;;;;7.30;6.70;;;-1.40;99.90;;;-0.74;80.83;98679.28;5239618;28;20201;-65
2023/04/04 04:21:25;;;;;;;7.00;6.43;;;-1.40;99.90;;;-0.83;81.78;98685.78;5239930;28;20203;-65
2023/04/04 04:23:58;;;;;;;6.90;6.20;;;-1.40;99.90;;;-0.85;80.63;98673.78;5238156;28;20192;-65
2023/04/04 04:26:31;;;;;;;6.93;6.43;;;-1.50;99.90;;;-0.95;81.96;98682.75;5234083;28;20208;-65
2023/04/04 04:29:04;;;;;;;6.70;6.00;;;-1.60;99.90;;;-0.98;80.04;98677.38;5235632;28;20210;-66
2023/04/04 04:31:39;;;;;;;6.80;6.23;;;-1.60;99.90;;;-1.07;82.09;98680.47;5232630;28;20201;-65
2023/04/04 04:34:12;;;;;;;5.87;5.47;;;-1.60;99.90;;;-1.09;81.07;98679.38;5229040;28;20225;-65
2023/04/04 04:36:46;;;;;;;6.53;6.03;;;-1.60;99.90;;;-1.08;79.40;98687.09;5234166;28;20209;-64
2023/04/04 04:39:19;;;;;;;6.50;6.00;;;-1.60;99.90;;;-1.03;80.29;98678.50;5240245;28;20581;-65
2023/04/04 04:41:52;;;;;;;6.33;5.93;;;-1.60;99.90;;;-0.93;80.92;98675.41;5234692;28;20200;-65
2023/04/04 04:44:25;;;;;;;7.50;6.90;;;-1.50;99.90;;;-0.85;81.82;98679.69;5232760;28;20245;-66
2023/04/04 04:46:59;;;;;;;7.50;6.90;;;-1.50;99.90;;;-0.84;82.66;98681.47;5230704;28;20251;-66
2023/04/04 04:49:33;;;;;;;8.07;7.37;;;-1.50;99.90;;;-0.86;82.97;98687.03;5237605;28;20204;-66
2023/04/04 04:52:06;;;;;;;7.13;6.63;;;-1.50;99.90;;;-0.95;84.17;98689.38;5232921;28;20210;-65
2023/04/04 04:54:38;;;;;;;7.07;6.47;;;-1.60;99.90;;;-1.00;85.05;98688.88;5238259;28;20604;-65
2023/04/04 04:57:11;;;;;;;7.77;7.00;;;-1.60;99.90;;;-0.99;83.54;98683.13;5236557;28;20198;-65
2023/04/04 04:59:45;;;;;;;7.43;6.87;;;-1.60;99.90;;;-0.98;83.37;98692.44;5235459;28;20209;-64
2023/04/04 05:02:19;;;;;;;7.83;7.00;;;-1.60;99.90;;;-1.01;84.96;98687.06;5234295;28;20707;-65
2023/04/04 05:04:52;;;;;;;7.90;7.30;;;-1.60;99.90;;;-0.97;84.20;98685.81;5238207;28;20220;-66
2023/04/04 05:07:25;;;;;;;8.03;7.33;;;-1.60;99.90;;;-0.96;85.29;98698.53;5239020;28;20193;-65
2023/04/04 05:09:58;;;;;;;7.90;7.20;;;-1.60;99.90;;;-1.05;83.47;98694.06;5239471;28;20207;-66
2023/04/04 05:12:31;;;;;;;7.07;6.57;;;-1.60;99.90;;;-1.01;83.58;98689.56;5232722;28;20197;-64
2023/04/04 05:15:06;;;;;;;8.00;7.40;;;-1.60;99.90;;;-0.96;83.59;98701.03;5234830;28;20228;-65
2023/04/04 05:17:41;;;;;;;7.90;7.30;;;-1.60;99.90;;;-1.05;82.51;98692.47;5242840;28;20195;-64
2023/04/04 05:20:14;;;;;;;7.20;6.60;;;-1.70;99.90;;;-1.00;83.94;98701.41;5242930;28;20678;-64
2023/04/04 05:22:47;;;;;;;8.30;7.50;;;-1.60;99.90;;;-0.96;83.68;98711.06;5236174;28;20211;-65
2023/04/04 05:25:23;;;;;;;8.77;8.17;;;-1.60;99.90;;;-0.91;83.92;98704.97;5236731;28;20228;-65
2023/04/04 05:27:57;;;;;;;8.23;7.60;;;-1.50;99.90;;;-0.85;84.48;98702.25;5235093;28;20656;-65
2023/04/04 05:30:31;;;;;;;7.77;7.03;;;-1.50;99.90;;;-0.78;84.59;98701.34;5234755;28;20972;-65
2023/04/04 05:33:05;;;;;;;7.30;6.80;;;-1.50;99.90;;;-0.77;84.17;98695.63;5225510;28;20230;-65
2023/04/04 05:35:40;;;;;;;8.17;7.53;;;-1.40;99.90;;;-0.69;84.21;98699.88;5230504;28;20225;-65
2023/04/04 05:38:13;;;;;;;7.60;7.10;;;-1.40;99.90;;;-0.65;83.88;98704.53;5235849;28;20206;-64
2023/04/04 05:40:46;;;;;;;8.17;7.47;;;-1.30;99.90;;;-0.64;84.18;98697.88;5232324;28;20211;-65
2023/04/04 05:43:19;;;;;;;7.17;6.63;;;-1.30;99.90;;;-0.46;81.63;98697.44;5235967;28;20201;-66
2023/04/04 05:45:52;;;;;;;7.77;7.17;;;-1.20;99.90;;;-0.11;80.25;98695.50;5231466;28;20226;-65
2023/04/04 05:48:26;;;;;;;7.63;6.93;;;-1.00;99.90;;;0.31;78.99;98695.91;5233753;28;20290;-66
2023/04/04 05:50:59;;;;;;;7.70;6.73;;;-0.70;99.90;;;0.60;77.09;98696.56;5229248;28;20212;-67
2023/04/04 05:53:33;;;;;;;8.40;7.70;;;-0.40;99.90;;;1.11;76.21;98691.22;5232617;28;20323;-68
2023/04/04 05:56:06;;;;;;;7.13;6.57;;;0.00;99.90;;;1.39;72.99;98698.28;5229861;28;20345;-67
2023/04/04 05:58:39;;;;;;;6.87;6.37;;;0.30;99.90;;;1.73;72.76;98697.69;5232190;28;20223;-65
2023/04/04 06:01:12;;;;;;;6.13;5.73;;;0.50;99.90;;;2.06;71.71;98697.78;5227420;28;20706;-64
2023/04/04 06:03:46;;;;;;;7.00;6.37;;;0.70;99.90;;;2.42;70.75;98692.19;5232232;28;20200;-64
2023/04/04 06:06:20;;;;;;;7.80;7.07;;;0.90;99.90;;;2.77;67.65;98692.31;5228800;28;20212;-65
2023/04/04 06:08:53;;;;;;;7.00;6.30;;;1.20;99.90;;;3.20;67.93;98696.59;5232603;28;20218;-64
2023/04/04 06:11:26;;;;;;;6.70;6.13;;;1.50;99.90;;;3.51;65.20;98701.38;5226340;28;20220;-65
2023/04/04 06:13:59;;;;;;;6.63;6.10;;;1.70;99.90;;;3.77;63.06;98690.38;5228995;28;20233;-64
2023/04/04 06:16:32;;;;;;;6.00;5.50;;;2.00;99.90;;;3.25;60.81;98695.41;5225574;28;20218;-68
2023/04/04 06:19:06;;;;;;;7.07;6.33;;;1.80;99.90;;;3.39;62.67;98698.56;5229787;28;20205;-64
2023/04/04 06:21:39;;;;;;;6.60;6.10;;;1.90;99.90;;;3.26;61.71;98695.59;5231508;28;20200;-65
2023/04/04 06:24:12;;;;;;;6.00;5.60;;;1.90;99.90;;;3.18;63.75;98693.94;5235208;28;20219;-63
2023/04/04 06:26:45;;;;;;;6.80;5.93;;;1.90;99.90;;;3.72;60.33;98689.97;5231872;28;20576;-64
2023/04/04 06:29:18;;;;;;;5.83;5.33;;;2.40;99.90;;;3.75;57.75;98681.75;5235917;28;20203;-65
2023/04/04 06:31:51;;;;;;;5.13;4.77;;;2.50;99.90;;;4.27;59.14;98686.75;5234827;28;20671;-65
2023/04/04 06:34:26;;;;;;;5.23;4.83;;;2.90;99.90;;;4.00;53.55;98678.31;5231693;28;20965;-65
2023/04/04 06:36:58;;;;;;;6.00;5.37;;;3.00;97.60;;;4.67;52.06;98683.78;5238072;28;20210;-65
2023/04/04 06:39:33;;;;;;;5.50;5.00;;;3.40;97.00;;;4.83;51.97;98677.59;5237496;28;20232;-65
2023/04/04 06:42:06;;;;;;;5.57;5.13;;;3.40;97.10;;;5.41;52.41;98676.19;5237496;28;20320;-64
2023/04/04 06:44:39;;;;;;;5.23;4.83;;;3.80;97.20;;;5.73;51.32;98674.75;5238332;28;20217;-65
2023/04/04 06:47:12;;;;;;;4.77;4.37;;;4.10;96.80;;;5.14;49.07;98679.66;5236024;28;20224;-63
2023/04/04 06:49:47;;;;;;;4.93;4.53;;;4.00;94.10;;;5.76;47.88;98677.56;5233097;28;20206;-65
2023/04/04 06:52:20;;;;;;;5.03;4.53;;;4.40;94.20;;;5.85;49.35;98669.13;5239258;28;20655;-65
2023/04/04 06:54:52;;;;;;;4.70;4.23;;;4.40;94.60;;;5.95;47.32;98675.03;5237464;28;20224;-65
2023/04/04 06:57:26;;;;;;;4.70;4.40;;;4.70;93.50;;;6.28;47.13;98683.06;5237403;28;20212;-65
2023/04/04 06:59:58;;;;;;;5.10;4.63;;;4.80;93.10;;;5.93;46.73;98679.06;5233503;28;20277;-64
2023/04/04 07:02:32;;;;;;;5.33;4.93;;;4.80;92.10;;;5.86;48.24;98673.41;5241635;28;20210;-65
2023/04/04 07:05:08;;;;;;;4.77;4.47;;;4.60;93.10;;;5.47;46.32;98677.50;5233878;28;20735;-65
2023/04/04 07:07:41;;;;;;;5.50;4.33;;;4.60;91.60;;;6.30;46.50;98684.09;5240010;28;20213;-64
2023/04/04 07:10:15;;;;;;;5.10;4.60;;;4.70;92.80;;;6.53;45.11;98680.09;5232319;28;20580;-65
2023/04/04 07:12:48;;;;;;;4.80;4.50;;;4.80;91.50;;;7.04;44.62;98671.66;5237399;28;20200;-64
2023/04/04 07:15:21;;;;;;;5.17;4.77;;;5.20;91.50;;;7.52;46.02;98664.66;5235069;28;20248;-65
2023/04/04 07:17:55;;;;;;;4.87;4.37;;;5.40;93.50;;;6.93;43.86;98669.13;5229798;28;20643;-64
2023/04/04 07:20:31;;;;;;;5.93;4.73;;;5.10;90.80;;;7.83;43.54;98662.06;5235747;28;20629;-64
2023/04/04 07:23:04;;;;;;;7.10;4.77;;;5.30;92.00;;;7.81;42.88;98661.97;5230081;28;20193;-65
2023/04/04 07:25:37;;;;;;;4.67;4.27;;;5.50;91.40;;;8.13;42.00;98669.63;5227287;28;20221;-65
2023/04/04 07:28:10;;;;;;;4.70;4.30;;;6.00;90.70;;;8.00;41.89;98664.31;5233152;28;20667;-65
2023/04/04 07:30:45;;;;;;;4.27;3.87;;;6.30;89.80;;;7.36;42.03;98676.91;5236477;28;20204;-65
2023/04/04 07:33:18;;;;;;;4.50;4.10;;;6.00;89.10;;;6.93;42.29;98674.22;5235764;28;20208;-65
2023/04/04 07:35:53;;;;;;;4.73;4.10;;;5.60;89.10;;;7.43;42.70;98669.00;5234445;28;20234;-64
2023/04/04 07:38:26;;;;;;;4.60;4.20;;;6.20;89.20;;;6.98;42.21;98679.66;5238758;28;20291;-64
2023/04/04 07:40:59;;;;;;;3.90;3.50;;;6.10;87.10;;;7.10;42.39;98673.09;5233615;28;20204;-63
2023/04/04 07:43:35;;;;;;;4.50;4.10;;;6.10;88.10;;;6.39;43.26;98685.63;5233415;28;20204;-63
2023/04/04 07:46:08;;;;;;;5.07;4.63;;;5.90;87.50;;;6.19;43.51;98687.34;5235098;28;20212;-65
2023/04/04 07:48:41;;;;;;;4.77;4.37;;;5.70;88.00;;;5.81;45.08;98673.81;5243099;28;20207;-64
2023/04/04 07:51:16;;;;;;;4.20;3.90;;;5.20;89.40;;;5.99;44.31;98670.38;5235672;28;20196;-63
2023/04/04 07:53:50;;;;;;;5.50;4.50;;;5.30;88.50;;;6.57;45.23;98664.34;5230669;28;20227;-65
2023/04/04 07:56:23;;;;;;;5.27;4.60;;;5.70;90.00;;;6.93;45.54;98673.31;5234423;28;20223;-65
2023/04/04 07:58:56;;;;;;;4.37;4.07;;;6.00;90.30;;;7.25;41.75;98672.56;5236328;28;20215;-65
2023/04/04 08:01:29;;;;;;;5.37;4.33;;;6.60;85.70;;;7.20;42.57;98675.59;5230570;28;20304;-65
2023/04/04 08:04:04;;;;;;;4.60;4.20;;;6.40;87.20;;;7.11;43.92;98679.94;5236441;28;20670;-63
2023/04/04 08:06:38;;;;;;;5.27;4.27;;;6.30;88.00;;;7.31;41.95;98668.00;5233056;28;20204;-65
2023/04/04 08:09:11;;;;;;;5.03;4.63;;;6.50;86.30;;;7.46;41.71;98674.34;5244041;28;20226;-65
2023/04/04 08:11:44;;;;;;;4.83;4.10;;;6.70;86.00;;;6.14;43.43;98672.47;5236142;28;20205;-65
2023/04/04 08:14:17;;;;;;;5.30;4.80;;;5.90;85.10;;;6.44;42.09;98666.59;5233637;28;20216;-64
2023/04/04 08:16:50;;;;;;;4.90;4.40;;;5.90;84.90;;;6.66;43.18;98674.41;5229885;28;20201;-64
2023/04/04 08:19:23;;;;;;;5.20;4.70;;;6.10;87.80;;;6.92;43.43;98671.53;5232332;28;20204;-63
2023/04/04 08:21:58;;;;;;;5.40;4.50;;;6.20;86.90;;;6.97;43.46;98670.28;5227238;28;20860;-63
2023/04/04 08:24:31;;;;;;;7.07;4.93;;;6.40;86.30;;;6.83;43.16;98666.56;5236942;28;20220;-64
2023/04/04 08:27:04;;;;;;;5.57;4.37;;;6.30;86.30;;;6.91;44.14;98673.19;5237216;28;20208;-64
2023/04/04 08:29:38;;;;;;;4.77;4.47;;;6.20;87.70;;;7.19;43.97;98658.59;5235110;28;20223;-63
2023/04/04 08:32:11;;;;;;;4.63;4.17;;;6.50;87.00;;;7.02;42.15;98668.13;5232060;28;20220;-64
2023/04/04 08:34:44;;;;;;;4.70;4.30;;;6.40;85.30;;;6.92;42.97;98671.53;5236188;28;20669;-63
2023/04/04 08:37:18;;;;;;;4.53;4.23;;;6.40;86.90;;;6.35;41.06;98673.41;5237604;28;20203;-65
2023/04/04 08:39:51;;;;;;;4.27;3.83;;;5.90;82.30;;;6.34;42.28;98664.91;5238029;28;20208;-65
2023/04/04 08:42:26;;;;;;;5.03;4.47;;;5.70;84.50;;;6.55;40.84;98668.41;5236521;28;20267;-64
2023/04/04 08:45:03;;;;;;;5.30;4.50;;;6.10;82.60;;;6.81;42.96;98667.19;5236138;28;20215;-64
2023/04/04 08:47:38;;;;;;;5.33;4.77;;;6.10;85.00;;;6.54;41.83;98661.56;5232936;28;20211;-63
2023/04/04 08:50:12;;;;;;;4.90;4.23;;;5.90;84.40;;;7.18;42.65;98659.38;5229282;28;20655;-65
2023/04/04 08:52:47;;;;;;;4.87;4.47;;;6.50;85.20;;;6.95;41.40;98669.25;5232058;28;20637;-63
2023/04/04 08:55:20;;;;;;;4.60;4.20;;;6.50;82.80;;;6.78;41.62;98677.97;5232574;28;22374;-62
2023/04/04 08:57:54;;;;;;;5.03;4.53;;;6.20;82.40;;;6.98;41.79;98656.78;5232312;28;20291;-63
2023/04/04 09:00:28;;;;;;;4.53;4.20;;;6.40;84.50;;;7.34;42.10;98670.78;5233801;28;20239;-64
2023/04/04 09:03:10;;;;;;;5.10;4.63;;;6.70;84.10;;;7.38;40.38;98655.94;5235857;28;20829;-64
2023/04/04 09:05:44;;;;;;;4.63;4.00;;;6.60;82.20;;;7.03;40.23;98654.66;5228297;28;20227;-64
2023/04/04 09:08:19;;;;;;;4.97;4.43;;;6.70;80.80;;;7.20;39.38;98662.00;5228449;28;20659;-64
2023/04/04 09:10:53;;;;;;;4.40;4.07;;;6.70;79.90;;;7.12;38.67;98658.81;5231805;28;20204;-63
2023/04/04 09:13:26;;;;;;;4.60;4.20;;;6.80;78.60;;;7.64;39.49;98655.50;5232606;28;20197;-65
2023/04/04 09:16:00;;;;;;;4.67;4.27;;;7.20;80.30;;;7.65;39.01;98670.00;5231661;28;20224;-65
2023/04/04 09:18:33;;;;;;;4.60;4.20;;;7.10;80.10;;;7.69;38.99;98653.31;5233231;28;20284;-64
2023/04/04 09:21:10;;;;;;;4.67;4.30;;;7.10;79.90;;;7.53;38.67;98661.38;5231613;28;20205;-63
2023/04/04 09:23:45;;;;;;;4.83;4.30;;;7.00;79.60;;;7.54;40.41;98657.16;5231072;28;20208;-64
2023/04/04 09:26:18;;;;;;;4.90;4.47;;;6.80;82.80;;;7.27;39.87;98660.84;5235317;28;20224;-64
2023/04/04 09:28:53;;;;;;;5.20;4.80;;;6.70;80.20;;;6.77;39.53;98668.59;5233968;28;20589;-64
2023/04/04 09:31:26;;;;;;;4.27;3.97;;;6.30;79.80;;;6.81;40.05;98663.03;5237539;28;20200;-64
2023/04/04 09:33:59;;;;;;;4.87;4.43;;;6.30;80.30;;;6.47;40.35;98661.81;5240809;28;20497;-62
2023/04/04 09:36:32;;;;;;;4.10;3.80;;;6.10;80.90;;;6.76;41.05;98659.19;5228383;28;20216;-65
2023/04/04 09:39:07;;;;;;;4.93;4.43;;;6.30;81.30;;;6.60;40.66;98662.06;5229623;28;20599;-64
2023/04/04 09:41:40;;;;;;;4.83;4.37;;;6.30;80.10;;;6.25;40.78;98662.47;5229554;28;20375;-65
2023/04/04 09:44:14;;;;;;;5.27;4.80;;;5.90;80.00;;;6.51;40.25;98662.19;5234999;28;20231;-63
2023/04/04 09:46:50;;;;;;;6.13;4.87;;;6.00;81.00;;;6.93;39.52;98668.25;5226111;28;20605;-64
2023/04/04 09:49:24;;;;;;;5.40;4.53;;;6.40;79.70;;;6.66;39.50;98662.59;5232695;28;20210;-64
2023/04/04 09:51:57;;;;;;;5.33;4.07;;;6.20;79.50;;;6.56;39.19;98669.31;5229804;28;20320;-65
2023/04/04 09:54:32;;;;;;;4.70;4.30;;;6.10;78.70;;;6.36;39.63;98668.50;5234059;28;20596;-64
2023/04/04 09:57:08;;;;;;;5.33;4.23;;;6.00;79.60;;;6.85;41.19;98664.16;5233595;28;20224;-64
2023/04/04 09:59:42;;;;;;;4.50;4.10;;;6.30;83.30;;;6.51;39.65;98661.28;5235092;28;20202;-65
2023/04/04 10:02:16;;;;;;;5.10;4.70;;;6.20;79.00;;;6.89;40.11;98671.28;5230859;28;20544;-64
2023/04/04 10:04:50;;;;;;;5.50;5.00;;;6.40;79.40;;;7.10;39.14;98668.00;5236183;28;20292;-63
2023/04/04 10:07:41;;;;;;;5.10;4.60;;;6.90;77.80;;;6.87;39.85;98670.28;5238489;28;22160;-64
2023/04/04 10:10:15;;;;;;;5.03;4.53;;;6.60;78.20;;;6.48;41.25;98667.00;5233000;28;20227;-65
2023/04/04 10:12:48;;;;;;;4.90;4.50;;;6.30;80.50;;;6.65;40.82;98675.19;5240801;28;20200;-65
2023/04/04 10:15:23;;;;;;;4.60;4.20;;;6.30;80.50;;;6.50;39.62;98654.44;5235213;28;20225;-65
2023/04/04 10:17:57;;;;;;;4.67;4.13;;;6.10;79.30;;;6.95;40.17;98671.78;5233048;28;20208;-64
2023/04/04 10:20:33;;;;;;;4.87;4.57;;;6.60;79.40;;;7.15;39.23;98656.56;5239239;28;20210;-64
2023/04/04 10:23:06;;;;;;;5.37;4.90;;;6.80;78.00;;;6.73;40.64;98658.94;5229493;28;20763;-63
2023/04/04 10:25:40;;;;;;;5.20;4.80;;;6.40;80.40;;;6.60;41.74;98657.00;5234022;28;20212;-64
2023/04/04 10:28:13;;;;;;;5.00;4.63;;;6.30;81.60;;;6.74;40.01;98650.53;5236700;28;20953;-64
2023/04/04 10:30:52;;;;;;;5.30;4.80;;;6.40;79.10;;;6.86;38.97;98654.09;5239254;28;20592;-66
2023/04/04 10:33:46;;;;;;;5.07;4.67;;;6.50;78.90;;;7.02;40.43;98648.69;5239839;28;20207;-63
2023/04/04 10:36:24;;;;;;;4.90;4.50;;;6.50;80.10;;;7.25;40.12;98644.63;5235945;28;20231;-64
2023/04/04 10:39:05;;;;;;;5.30;4.63;;;6.70;80.00;;;7.32;38.91;98650.31;5234311;28;20969;-64
2023/04/04 10:41:40;;;;;;;4.37;4.07;;;7.00;78.30;;;7.07;39.56;98644.88;5237713;28;20880;-64
2023/04/04 10:44:32;;;;;;;4.53;4.07;;;6.70;77.60;;;6.95;39.50;98646.38;5239738;28;20220;-64
2023/04/04 10:47:14;;;;;;;5.23;4.53;;;6.70;79.30;;;7.16;40.47;98635.47;5235592;28;20204;-64
2023/04/04 10:49:49;;;;;;;4.77;4.37;;;6.80;80.10;;;7.11;39.26;98644.34;5241556;28;20665;-63
2023/04/04 10:52:26;;;;;;;4.93;4.43;;;6.80;78.70;;;7.35;40.90;98634.41;5229887;28;20192;-63
2023/04/04 10:55:04;;;;;;;5.10;4.63;;;6.90;81.70;;;7.44;40.88;98635.19;5237697;28;20220;-64
2023/04/04 10:57:43;;;;;;;4.50;4.17;;;7.00;81.20;;;7.60;40.17;98637.31;5239197;28;20220;-63